Latest Weather Observations for Karratha

IDW60801

Issued at 5:32 am WST Monday 25 May 2015 (issued every 30 minutes, with the page automatically refreshed every 10 minutes)

About weather observations | Map of weather stations | Latest weather observations for WA | Other Formats
Station Details ID: 004083 Name: KARRATHA AERO Lat: -20.71 Lon: 116.77 Height: 5.3 m
Data from the previous 72 hours. | See also: Recent months at Karratha
Date/Time
WST
Temp
°C
App
Temp
°C
Dew
Point
Rel
Hum
%
Delta-T
°C
Wind Press
QNH
hPa
Press
MSL
hPa
Rain
since 9 am
mm
Dir
 
Spd
km/h
Gust
km/h
Spd
kts
Gust
kts
25/05:30am 18.1 14.8 17.9 99 0.1 ESE 32 37 17 20 1015.2 1015.2 16.2
25/05:00am 18.1 14.6 17.9 99 0.1 ESE 33 43 18 23 1014.8 1014.8 16.2
25/04:30am 18.1 14.8 17.9 99 0.1 ESE 32 41 17 22 1014.9 1014.9 16.2
25/04:00am 18.1 15.6 18.1 100 0.0 ESE 28 37 15 20 1014.9 1014.9 16.2
25/03:30am 18.1 15.3 18.1 100 0.0 ESE 30 39 16 21 1014.6 1014.6 16.2
25/03:00am 18.2 16.5 18.2 100 0.0 ESE 24 33 13 18 1014.9 1014.9 16.0
25/02:45am 18.3 16.3 18.3 100 0.0 ESE 26 32 14 17 1015.1 1015.1 15.4
25/02:30am 18.4 16.4 18.4 100 0.0 ESE 26 35 14 19 1015.3 1015.3 14.8
25/02:00am 18.3 16.3 18.3 100 0.0 ESE 26 35 14 19 1015.4 1015.4 14.8
25/01:30am 18.3 15.2 18.3 100 0.0 ESE 32 41 17 22 1014.8 1014.8 14.8
25/01:00am 18.4 16.8 18.4 100 0.0 ESE 24 30 13 16 1015.4 1015.4 14.6
25/12:51am 18.4 16.8 18.4 100 0.0 ESE 24 33 13 18 1015.4 1015.4 14.4
25/12:38am 18.5 16.2 18.5 100 0.0 E 28 35 15 19 1015.7 1015.7 13.8
25/12:30am 18.6 16.4 18.6 100 0.0 E 28 33 15 18 1015.9 1015.9 12.8
25/12:00am 18.6 16.4 18.6 100 0.0 E 28 37 15 20 1015.6 1015.6 12.6
 
Date/Time
WST
Temp
°C
App
Temp
°C
Dew
Point
Rel
Hum
%
Delta-T
°C
Wind Press
QNH
hPa
Press
MSL
hPa
Rain
since 9 am
mm
Dir
 
Spd
km/h
Gust
km/h
Spd
kts
Gust
kts
24/11:30pm 18.9 17.2 18.9 100 0.0 ESE 26 33 14 18 1015.7 1015.7 11.8
24/11:00pm 19.3 18.9 19.3 100 0.0 ESE 20 26 11 14 1015.4 1015.4 10.8
24/10:30pm 19.4 19.0 19.4 100 0.0 ESE 20 24 11 13 1015.6 1015.6 9.6
24/10:00pm 19.5 19.8 19.5 100 0.0 ESE 17 20 9 11 1015.4 1015.4 9.2
24/09:30pm 19.5 20.5 19.5 100 0.0 SE 13 17 7 9 1015.8 1015.8 9.0
24/09:00pm 19.5 19.1 19.0 97 0.3 SE 19 20 10 11 1015.6 1015.6 7.6
24/08:30pm 19.8 20.1 18.8 94 0.6 SE 15 20 8 11 1016.1 1016.1 7.2
24/08:00pm 19.8 19.3 19.0 95 0.5 ESE 20 26 11 14 1015.5 1015.5 7.2
24/07:30pm 20.1 19.9 19.8 98 0.2 ESE 20 24 11 13 1015.5 1015.5 7.2
24/07:00pm 19.9 19.2 19.4 97 0.3 ESE 22 28 12 15 1015.4 1015.4 7.2
24/06:30pm 20.4 20.1 20.4 100 0.0 ESE 22 30 12 16 1015.0 1015.0 7.2
24/06:00pm 20.8 20.7 20.8 100 0.0 ESE 22 28 12 15 1014.8 1014.8 7.2
24/05:30pm 20.8 21.7 20.8 100 0.0 ESE 17 20 9 11 1015.0 1015.0 7.2
24/05:00pm 20.9 21.4 20.9 100 0.0 ESE 19 20 10 11 1014.8 1014.8 7.2
24/04:30pm 21.0 22.0 21.0 100 0.0 ESE 17 22 9 12 1014.5 1014.5 7.2
24/04:29pm 21.1 22.1 21.1 100 0.0 ESE 17 22 9 12 1014.5 1014.5 7.2
24/04:00pm 21.2 22.7 21.2 100 0.0 ESE 15 19 8 10 1014.4 1014.4 6.8
24/03:58pm 21.1 22.5 21.1 100 0.0 ESE 15 19 8 10 1014.3 1014.3 6.6
24/03:56pm 20.9 22.2 20.9 100 0.0 ESE 15 19 8 10 1014.3 1014.3 6.6
24/03:52pm 20.9 21.8 20.9 100 0.0 ESE 17 20 9 11 1014.2 1014.2 6.6
24/03:42pm 20.9 22.2 20.9 100 0.0 ESE 15 20 8 11 1014.1 1014.1 6.2
24/03:36pm 20.9 21.8 20.9 100 0.0 SE 17 22 9 12 1014.5 1014.5 5.8
24/03:30pm 20.8 21.7 20.8 100 0.0 SE 17 22 9 12 1014.4 1014.4 5.6
24/03:00pm 20.8 21.7 20.8 100 0.0 SE 17 19 9 10 1014.5 1014.5 5.2
24/02:55pm 20.8 21.7 20.8 100 0.0 ESE 17 20 9 11 1014.5 1014.5 5.0
24/02:39pm 20.8 22.0 20.6 99 0.1 ESE 15 19 8 10 1014.3 1014.3 4.8
24/02:30pm 20.6 21.7 20.4 99 0.1 ESE 15 20 8 11 1014.4 1014.4 4.8
24/02:10pm 20.8 21.7 20.8 100 0.0 ESE 17 20 9 11 1014.4 1014.4 4.6
24/02:00pm 21.0 22.4 21.0 100 0.0 ESE 15 20 8 11 1014.5 1014.5 4.6
24/01:32pm 20.9 21.4 20.9 100 0.0 ESE 19 22 10 12 1014.7 1014.7 3.6
24/01:30pm 21.1 22.1 21.1 100 0.0 ESE 17 20 9 11 1014.7 1014.7 3.6
24/01:22pm 21.1 22.1 21.1 100 0.0 ESE 17 20 9 11 1014.8 1014.8 3.4
24/01:00pm 21.1 21.6 20.9 99 0.1 E 19 22 10 12 1015.1 1015.1 3.0
24/12:30pm 21.5 22.5 21.0 97 0.3 ENE 17 20 9 11 1015.7 1015.7 1.4
24/12:26pm 21.6 22.5 20.9 96 0.5 ENE 17 20 9 11 1015.7 1015.7 1.2
24/12:00pm 22.0 23.0 21.0 94 0.7 E 17 22 9 12 1015.9 1015.9 0.2
24/11:30am 22.2 22.8 21.0 93 0.8 ESE 19 22 10 12 1015.4 1015.4 0.0
24/11:00am 21.9 22.5 21.1 95 0.5 ESE 19 22 10 12 1015.6 1015.6 0.0
24/10:30am 21.9 22.4 20.9 94 0.7 ESE 19 22 10 12 1015.9 1015.9 0.0
24/10:00am 21.9 22.5 21.1 95 0.5 E 19 22 10 12 1016.1 1016.1 0.0
24/09:30am 21.5 22.5 21.0 97 0.3 E 17 19 9 10 1016.0 1016.0 0.0
24/09:00am 21.2 21.2 20.9 98 0.2 E 22 26 12 14 1015.5 1015.5 1.4
24/08:30am 21.1 21.9 20.6 97 0.3 NE 17 19 9 10 1016.0 1016.0 1.0
24/08:00am 21.5 21.7 20.1 92 0.9 ENE 19 22 10 12 1015.5 1015.5 0.4
24/07:30am 21.8 22.0 20.1 90 1.1 E 19 22 10 12 1015.0 1015.0 0.2
24/07:00am 21.6 22.1 20.1 91 1.0 ESE 17 20 9 11 1014.7 1014.7 0.2
24/06:30am 21.7 22.6 20.0 90 1.1 ESE 15 20 8 11 1014.7 1014.7 0.2
24/06:00am 21.9 23.3 20.4 91 1.0 ESE 13 17 7 9 1014.4 1014.4 0.2
24/05:30am 22.0 22.7 20.5 91 1.0 E 17 19 9 10 1014.2 1014.2 0.2
24/05:00am 22.0 23.4 21.0 94 0.7 E 15 17 8 9 1014.4 1014.4 0.2
24/04:30am 21.8 24.3 21.0 95 0.5 ENE 9 13 5 7 1014.5 1014.5 0.2
24/04:00am 21.3 23.7 20.8 97 0.3 ESE 9 11 5 6 1014.0 1014.0 0.2
24/03:30am 21.4 24.2 20.9 97 0.3 SSE 7 9 4 5 1014.0 1014.0 0.2
24/03:00am 21.4 23.5 20.9 97 0.3 SSE 11 17 6 9 1013.8 1013.8 0.2
24/02:30am 21.6 24.9 20.8 95 0.5 E 4 7 2 4 1014.3 1014.3 0.2
24/02:00am 21.7 24.5 20.9 95 0.5 NE 7 9 4 5 1014.5 1014.5 0.2
24/01:30am 21.6 24.4 20.8 95 0.5 ENE 7 9 4 5 1014.5 1014.5 0.2
24/01:00am 21.8 25.1 20.8 94 0.6 E 4 7 2 4 1014.5 1014.5 0.2
24/12:30am 21.9 24.3 20.9 94 0.7 E 9 9 5 5 1014.6 1014.6 0.2
24/12:00am 22.0 24.4 20.8 93 0.8 E 9 9 5 5 1014.7 1014.7 0.2
 
Date/Time
WST
Temp
°C
App
Temp
°C
Dew
Point
Rel
Hum
%
Delta-T
°C
Wind Press
QNH
hPa
Press
MSL
hPa
Rain
since 9 am
mm
Dir
 
Spd
km/h
Gust
km/h
Spd
kts
Gust
kts
23/11:30pm 22.0 24.4 20.8 93 0.8 E 9 9 5 5 1014.8 1014.8 0.2
23/11:00pm 22.3 23.9 20.8 91 1.0 E 13 15 7 8 1014.7 1014.7 0.2
23/10:30pm 22.4 24.8 20.9 91 1.0 ESE 9 13 5 7 1015.2 1015.2 0.2
23/10:00pm 22.4 23.5 21.2 93 0.8 ESE 17 20 9 11 1014.9 1014.9 0.2
23/09:30pm 22.5 24.2 21.7 95 0.5 ESE 15 19 8 10 1015.2 1015.2 0.2
23/09:00pm 22.4 24.6 21.9 97 0.3 ESE 13 17 7 9 1015.2 1015.2 0.2
23/08:30pm 22.4 24.6 21.9 97 0.3 E 13 17 7 9 1015.1 1015.1 0.2
23/08:00pm 22.2 24.4 21.9 98 0.2 SSE 13 15 7 8 1015.2 1015.2 0.2
23/07:30pm 22.2 24.5 22.0 99 0.1 SSE 13 17 7 9 1015.2 1015.2 0.2
23/07:00pm 22.1 23.5 21.9 99 0.1 S 17 22 9 12 1014.9 1014.9 0.2
23/06:30pm 22.3 25.3 22.0 98 0.2 S 9 13 5 7 1015.1 1015.1 0.2
23/06:00pm 22.4 23.7 21.6 95 0.5 SSW 17 20 9 11 1014.9 1014.9 0.2
23/05:30pm 23.3 24.4 21.2 88 1.4 SW 17 20 9 11 1015.1 1015.1 0.0
23/05:00pm 23.7 25.3 20.8 84 1.9 SSW 13 15 7 8 1014.7 1014.7 0.0
23/04:30pm 23.6 25.7 20.1 81 2.3 SW 9 13 5 7 1014.5 1014.5 0.0
23/04:00pm 23.8 24.3 20.1 80 2.4 WSW 17 19 9 10 1014.6 1014.6 0.0
23/03:30pm 24.8 25.7 19.2 71 3.6 WSW 13 15 7 8 1014.5 1014.5 0.0
23/03:00pm 25.8 27.5 15.2 52 6.4 CALM 0 0 0 0 1014.4 1014.4 0.0
23/02:30pm 25.8 26.5 15.5 53 6.2 NE 6 9 3 5 1014.4 1014.4 0.0
23/02:00pm 25.4 25.6 16.8 59 5.3 NNE 11 13 6 7 1014.6 1014.6 0.0
23/01:30pm 25.3 24.9 16.2 57 5.6 NE 13 17 7 9 1014.5 1014.5 0.0
23/01:00pm 25.2 25.0 17.7 63 4.7 ENE 15 17 8 9 1014.6 1014.6 0.0
23/12:30pm 25.7 25.3 18.1 63 4.8 NE 17 20 9 11 1015.2 1015.2 0.0
23/12:00pm 25.7 25.3 18.1 63 4.8 NE 17 20 9 11 1015.3 1015.3 0.0
23/11:30am 25.8 26.6 18.2 63 4.8 NE 11 15 6 8 1015.8 1015.8 0.0
23/11:00am 26.2 27.0 18.1 61 5.1 ENE 11 17 6 9 1015.8 1015.8 0.0
23/10:30am 26.5 25.5 17.6 58 5.6 ENE 19 24 10 13 1016.1 1016.1 0.0
23/10:00am 26.7 26.8 18.3 60 5.3 E 15 20 8 11 1016.3 1016.3 0.0
23/09:30am 25.2 25.8 18.6 67 4.2 ESE 13 17 7 9 1016.5 1016.5 0.0
23/09:00am 23.7 24.6 19.2 76 2.9 SE 13 15 7 8 1016.8 1016.8 1.4
23/08:30am 23.2 25.0 19.6 80 2.3 SSE 9 13 5 7 1016.5 1016.5 1.4
23/08:00am 21.4 23.6 19.5 89 1.2 SE 7 9 4 5 1016.3 1016.3 1.4
23/07:30am 21.6 23.0 19.5 88 1.3 SE 11 13 6 7 1016.3 1016.3 1.4
23/07:00am 21.0 23.2 19.6 92 0.9 SE 7 9 4 5 1016.2 1016.2 1.4
23/06:30am 20.5 22.1 19.2 92 0.8 SE 9 13 5 7 1015.6 1015.6 1.4
23/06:00am 20.9 22.4 18.8 88 1.3 E 9 13 5 7 1015.7 1015.7 1.4
23/05:30am 21.3 22.8 19.0 87 1.5 ESE 9 11 5 6 1015.4 1015.4 1.2
23/05:00am 21.2 22.4 19.1 88 1.3 SE 11 13 6 7 1015.3 1015.3 1.2
23/04:30am 21.0 22.3 19.3 90 1.1 SE 11 13 6 7 1015.6 1015.6 1.2
23/04:00am 20.9 23.1 19.2 90 1.1 SE 6 9 3 5 1015.6 1015.6 1.2
23/03:30am 20.7 24.0 19.0 90 1.1 CALM 0 0 0 0 1015.5 1015.5 1.2
23/03:00am 20.6 23.8 18.9 90 1.1 CALM 0 0 0 0 1015.9 1015.9 1.2
23/02:30am 20.7 23.6 19.0 90 1.1 S 2 7 1 4 1015.9 1015.9 1.2
23/02:00am 20.5 23.4 19.0 91 0.9 SE 2 7 1 4 1015.9 1015.9 1.2
23/01:30am 20.8 22.0 19.1 90 1.1 SSE 11 15 6 8 1015.9 1015.9 1.2
23/01:00am 20.5 21.3 19.0 91 0.9 S 13 15 7 8 1016.0 1016.0 1.2
23/12:30am 20.7 21.8 18.8 89 1.2 SSE 11 13 6 7 1016.1 1016.1 1.2
23/12:00am 20.8 22.3 18.9 89 1.2 SSE 9 13 5 7 1016.3 1016.3 1.2
 
Date/Time
WST
Temp
°C
App
Temp
°C
Dew
Point
Rel
Hum
%
Delta-T
°C
Wind Press
QNH
hPa
Press
MSL
hPa
Rain
since 9 am
mm
Dir
 
Spd
km/h
Gust
km/h
Spd
kts
Gust
kts
22/11:30pm 21.0 22.5 18.9 88 1.3 SSE 9 11 5 6 1016.5 1016.5 1.2
22/11:00pm 20.8 22.5 19.3 91 0.9 S 9 11 5 6 1016.8 1016.8 1.2
22/10:30pm 20.9 22.1 19.0 89 1.2 S 11 13 6 7 1017.0 1017.0 1.2
22/10:00pm 21.0 22.1 18.9 88 1.3 SSW 11 15 6 8 1016.9 1016.9 1.2
22/09:30pm 21.5 22.4 18.5 83 1.9 SW 11 15 6 8 1017.2 1017.2 1.2
22/09:00pm 21.7 22.6 18.5 82 2.0 SW 11 13 6 7 1017.1 1017.1 1.2
22/08:30pm 21.9 22.9 18.7 82 2.0 SSW 11 13 6 7 1016.9 1016.9 1.2
22/08:00pm 21.7 23.1 19.6 88 1.3 SSW 11 15 6 8 1016.5 1016.5 1.2
22/07:30pm 21.9 23.7 20.4 91 1.0 SSW 11 15 6 8 1016.4 1016.4 1.2
22/07:00pm 22.3 25.0 20.6 90 1.1 S 7 9 4 5 1016.1 1016.1 1.2
22/06:30pm 22.6 23.9 20.1 86 1.6 SSE 13 20 7 11 1015.2 1015.2 1.2
22/06:00pm 22.8 25.1 19.8 83 1.9 ENE 7 9 4 5 1015.6 1015.6 1.2
22/05:30pm 23.1 24.7 19.9 82 2.1 NE 11 13 6 7 1015.2 1015.2 1.2
22/05:00pm 22.9 24.9 19.9 83 1.9 ENE 9 11 5 6 1015.1 1015.1 1.2
22/04:30pm 22.9 23.8 19.3 80 2.3 ENE 13 15 7 8 1015.2 1015.2 1.2
22/04:00pm 22.9 24.2 19.3 80 2.3 ENE 11 15 6 8 1015.3 1015.3 1.2
22/03:30pm 22.6 24.1 19.8 84 1.8 ENE 11 15 6 8 1015.4 1015.4 1.2
22/03:00pm 23.1 22.9 18.4 75 3.0 NE 17 24 9 13 1015.5 1015.5 0.4
22/02:30pm 24.8 22.8 16.5 60 5.1 NE 22 28 12 15 1014.9 1014.9 0.0
22/02:00pm 25.0 23.0 16.4 59 5.3 NE 22 28 12 15 1015.3 1015.3 0.0
22/01:30pm 25.8 24.4 16.9 58 5.5 NE 20 26 11 14 1015.6 1015.6 0.0
22/01:00pm 26.1 22.8 16.1 54 6.1 ENE 28 33 15 18 1015.6 1015.6 0.0
22/12:30pm 25.9 22.9 15.9 54 6.1 ENE 26 32 14 17 1016.0 1016.0 0.0
22/12:00pm 26.8 24.1 16.7 54 6.3 ENE 26 32 14 17 1016.3 1016.3 0.0
22/11:30am 25.1 22.7 16.3 58 5.4 ENE 24 30 13 16 1016.9 1016.9 0.0
22/11:00am 25.2 22.8 16.3 57 5.4 ENE 24 30 13 16 1017.2 1017.2 0.0
22/10:30am 24.3 22.0 16.6 62 4.7 E 24 28 13 15 1017.5 1017.5 0.0
22/10:00am 24.0 21.6 16.3 62 4.7 E 24 30 13 16 1017.8 1017.8 0.0
22/09:30am 24.4 22.1 16.6 61 4.8 E 24 32 13 17 1018.0 1018.0 0.0
22/09:00am 22.6 20.7 16.6 69 3.7 E 22 28 12 15 1018.0 1018.0 0.2
22/08:30am 21.7 20.1 16.4 72 3.2 E 20 26 11 14 1017.7 1017.7 0.2
22/08:00am 21.2 19.7 16.2 73 3.0 E 19 20 10 11 1017.6 1017.6 0.2
22/07:30am 20.3 19.0 15.9 76 2.6 E 17 20 9 11 1017.4 1017.4 0.2
22/07:00am 19.9 18.3 16.0 78 2.3 E 19 22 10 12 1017.2 1017.2 0.2
22/06:30am 19.9 18.2 16.3 80 2.2 E 20 22 11 12 1016.8 1016.8 0.2
22/06:00am 19.9 18.4 16.2 79 2.2 E 19 24 10 13 1016.6 1016.6 0.2

Other Formats:

Comma delimited format used in spreadsheet applications
http://www.bom.gov.au/fwo/IDW60801/IDW60801.95307.axf

JavaScript Object Notation format (JSON) in row-major order
http://www.bom.gov.au/fwo/IDW60801/IDW60801.95307.json